createdAt,value
2022-10-01T00:02:00.906Z,21.17
2022-10-01T00:06:54.588Z,21.15
2022-10-01T00:11:48.217Z,21.15
2022-10-01T00:16:41.849Z,21.05
2022-10-01T00:21:36.015Z,21.16
2022-10-01T00:26:37.472Z,21.15
2022-10-01T00:31:30.883Z,21.03
2022-10-01T00:36:25.237Z,21.04
2022-10-01T00:41:19.198Z,20.99
2022-10-01T00:46:29.197Z,21.09
2022-10-01T00:51:23.156Z,21.08
2022-10-01T00:56:16.546Z,21.02
2022-10-01T01:01:10.082Z,21.07
2022-10-01T01:06:03.796Z,20.96
2022-10-01T01:11:11.224Z,20.99
2022-10-01T01:16:28.689Z,21.08
2022-10-01T01:21:48.825Z,21.05
2022-10-01T01:27:10.018Z,21.04
2022-10-01T01:32:14.992Z,21.00
2022-10-01T01:37:13.140Z,20.88
2022-10-01T01:42:11.357Z,20.98
2022-10-01T01:47:08.436Z,21.04
2022-10-01T01:52:14.264Z,21.00
2022-10-01T01:57:08.687Z,20.89
2022-10-01T02:02:02.907Z,21.03
2022-10-01T02:07:23.830Z,21.02
2022-10-01T02:12:23.506Z,21.03
2022-10-01T02:17:34.478Z,20.99
2022-10-01T02:22:58.692Z,20.96
2022-10-01T02:27:57.011Z,20.97
2022-10-01T02:32:52.184Z,20.90
2022-10-01T02:37:50.035Z,20.96
2022-10-01T02:42:50.914Z,20.95
2022-10-01T02:47:50.146Z,20.86
2022-10-01T02:52:53.180Z,20.93
2022-10-01T02:57:47.051Z,20.82
2022-10-01T03:02:41.172Z,20.91
2022-10-01T03:07:36.178Z,20.89
2022-10-01T03:12:30.197Z,20.80
2022-10-01T03:17:24.281Z,20.82
2022-10-01T03:22:20.501Z,20.82
2022-10-01T03:27:14.483Z,20.84
2022-10-01T03:32:07.790Z,20.81
2022-10-01T03:37:01.045Z,20.96
2022-10-01T03:41:54.455Z,20.89
2022-10-01T03:46:47.486Z,20.78
2022-10-01T03:51:41.751Z,20.86
2022-10-01T03:56:36.631Z,20.83
2022-10-01T04:01:31.555Z,20.72
2022-10-01T04:06:25.301Z,20.83
2022-10-01T04:11:19.800Z,20.85
2022-10-01T04:16:13.439Z,20.83
2022-10-01T04:21:07.320Z,20.83
2022-10-01T04:26:04.276Z,20.84
2022-10-01T04:31:18.132Z,20.81
2022-10-01T04:36:11.575Z,20.81
2022-10-01T04:41:04.508Z,20.78
2022-10-01T04:45:58.709Z,20.80
2022-10-01T04:50:52.629Z,20.79
2022-10-01T04:55:46.702Z,20.66
2022-10-01T05:00:40.826Z,20.77
2022-10-01T05:05:35.962Z,20.67
2022-10-01T05:10:30.332Z,20.69
2022-10-01T05:15:24.025Z,20.59
2022-10-01T05:20:20.451Z,20.38
2022-10-01T05:25:13.252Z,20.53
2022-10-01T05:30:11.113Z,20.49
2022-10-01T05:35:06.420Z,20.52
2022-10-01T05:40:00.309Z,20.60
2022-10-01T05:44:53.867Z,20.58
2022-10-01T05:49:47.127Z,20.63
2022-10-01T05:54:39.934Z,20.71
2022-10-01T05:59:33.897Z,20.61
2022-10-01T06:04:27.575Z,20.59
2022-10-01T06:09:24.279Z,20.60
2022-10-01T06:14:18.112Z,20.59
2022-10-01T06:19:12.378Z,20.64
2022-10-01T06:24:06.274Z,20.61
2022-10-01T06:28:59.162Z,20.55
2022-10-01T06:33:52.763Z,20.57
2022-10-01T06:38:52.220Z,20.62
2022-10-01T06:43:46.550Z,20.67
2022-10-01T06:48:39.884Z,20.45
2022-10-01T06:53:33.721Z,20.57
2022-10-01T06:58:26.984Z,20.54
2022-10-01T07:03:21.876Z,20.58
2022-10-01T07:08:15.956Z,20.69
2022-10-01T07:13:09.587Z,20.58
2022-10-01T07:18:02.676Z,20.49
2022-10-01T07:23:00.338Z,20.36
2022-10-01T07:28:02.334Z,20.47
2022-10-01T07:32:55.772Z,20.48
2022-10-01T07:37:49.623Z,20.48
2022-10-01T07:42:42.997Z,20.39
2022-10-01T07:47:37.369Z,20.52
2022-10-01T07:52:31.558Z,20.37
2022-10-01T07:57:25.396Z,20.41
2022-10-01T08:02:19.685Z,20.43
2022-10-01T08:07:13.402Z,20.47
2022-10-01T08:12:07.480Z,20.58
2022-10-01T08:17:02.636Z,20.51
2022-10-01T08:21:56.825Z,20.66
2022-10-01T08:26:59.908Z,20.62
2022-10-01T08:31:53.975Z,20.63
2022-10-01T08:36:51.928Z,20.59
2022-10-01T08:41:54.168Z,20.73
2022-10-01T08:46:48.358Z,20.58
2022-10-01T08:51:52.120Z,20.67
2022-10-01T08:56:48.339Z,20.58
2022-10-01T09:02:01.465Z,20.62
2022-10-01T09:07:36.503Z,20.75
2022-10-01T09:12:58.398Z,20.70
2022-10-01T09:18:13.895Z,20.78
2022-10-01T09:23:32.662Z,20.80
2022-10-01T09:28:30.222Z,20.83
2022-10-01T09:33:30.549Z,20.85
2022-10-01T09:38:28.211Z,20.86
2022-10-01T09:43:24.603Z,20.87
2022-10-01T09:48:43.340Z,20.81
2022-10-01T09:53:44.404Z,20.86
2022-10-01T09:58:48.668Z,20.88
2022-10-01T10:03:53.976Z,20.92
2022-10-01T10:08:47.777Z,20.92
2022-10-01T10:13:49.595Z,20.94
2022-10-01T10:18:43.436Z,20.93
2022-10-01T10:24:09.855Z,20.89
2022-10-01T10:29:04.255Z,20.74
2022-10-01T10:33:59.272Z,20.95
2022-10-01T10:38:54.401Z,20.96
2022-10-01T10:43:59.897Z,20.81
2022-10-01T10:49:04.785Z,20.88
2022-10-01T10:54:01.463Z,20.97
2022-10-01T10:58:55.366Z,20.99
2022-10-01T11:04:09.078Z,20.97
2022-10-01T11:09:06.385Z,21.03
2022-10-01T11:14:23.983Z,21.00
2022-10-01T11:19:45.044Z,21.02
2022-10-01T11:24:56.886Z,20.97
2022-10-01T11:30:22.105Z,21.02
2022-10-01T11:35:52.693Z,21.03
2022-10-01T11:41:04.200Z,21.03
2022-10-01T11:46:07.422Z,21.06
2022-10-01T11:51:20.887Z,20.94
2022-10-01T11:56:47.584Z,20.96
2022-10-01T12:01:43.721Z,21.06
2022-10-01T12:07:06.549Z,20.96
2022-10-01T12:12:07.326Z,21.02
2022-10-01T12:17:12.651Z,21.25
2022-10-01T12:22:26.518Z,21.16
2022-10-01T12:28:07.559Z,21.29
2022-10-01T12:33:36.227Z,21.30
2022-10-01T12:38:41.302Z,21.32
2022-10-01T12:44:09.928Z,21.22
2022-10-01T12:49:31.694Z,21.25
2022-10-01T12:54:43.605Z,21.27
2022-10-01T13:00:11.289Z,21.29
2022-10-01T13:05:07.325Z,21.34
2022-10-01T13:10:16.163Z,21.32
2022-10-01T13:15:21.881Z,21.33
2022-10-01T13:20:21.699Z,21.33
2022-10-01T13:25:40.343Z,21.30
2022-10-01T13:30:50.134Z,21.19
2022-10-01T13:36:02.930Z,21.33
2022-10-01T13:41:33.086Z,21.23
2022-10-01T13:46:32.806Z,21.20
2022-10-01T13:51:36.208Z,21.18
2022-10-01T13:56:37.595Z,21.04
2022-10-01T14:01:40.395Z,21.22
2022-10-01T14:06:36.826Z,21.18
2022-10-01T14:11:52.087Z,21.30
2022-10-01T14:16:48.348Z,21.22
2022-10-01T14:21:53.684Z,21.23
2022-10-01T14:27:15.735Z,21.22
2022-10-01T14:32:23.953Z,21.21
2022-10-01T14:37:20.232Z,21.22
2022-10-01T14:42:18.837Z,21.22
2022-10-01T14:47:26.773Z,21.20
2022-10-01T14:52:31.279Z,21.31
2022-10-01T14:57:42.013Z,21.19
2022-10-01T15:02:35.252Z,21.33
2022-10-01T15:07:35.454Z,21.12
2022-10-01T15:12:30.947Z,21.24
2022-10-01T15:17:27.516Z,21.19
2022-10-01T15:22:27.064Z,21.21
2022-10-01T15:27:22.076Z,21.34
2022-10-01T15:32:25.236Z,21.31
2022-10-01T15:37:24.826Z,21.31
2022-10-01T15:42:32.339Z,21.30
2022-10-01T15:47:25.428Z,21.53
2022-10-01T15:52:37.420Z,21.58
2022-10-01T15:57:32.226Z,21.47
2022-10-01T16:02:29.565Z,21.54
2022-10-01T16:07:35.327Z,21.64
2022-10-01T16:12:29.166Z,21.65
2022-10-01T16:17:27.030Z,21.69
2022-10-01T16:22:34.012Z,21.63
2022-10-01T16:27:35.579Z,21.64
2022-10-01T16:32:28.708Z,21.69
2022-10-01T16:37:23.637Z,21.56
2022-10-01T16:42:24.632Z,21.68
2022-10-01T16:47:18.053Z,21.62
2022-10-01T16:52:15.528Z,21.68
2022-10-01T16:57:09.331Z,21.71
2022-10-01T17:02:02.900Z,21.69
2022-10-01T17:06:57.078Z,21.72
2022-10-01T17:11:50.465Z,21.73
2022-10-01T17:16:44.579Z,21.81
2022-10-01T17:21:39.065Z,21.73
2022-10-01T17:26:32.899Z,21.93
2022-10-01T17:31:28.289Z,21.87
2022-10-01T17:36:22.330Z,22.06
2022-10-01T17:41:19.967Z,21.92
2022-10-01T17:46:13.819Z,21.99
2022-10-01T17:51:09.911Z,21.90
2022-10-01T17:56:12.969Z,21.75
2022-10-01T18:01:10.029Z,21.80
2022-10-01T18:06:04.464Z,21.79
2022-10-01T18:11:11.992Z,21.86
2022-10-01T18:16:10.372Z,21.93
2022-10-01T18:21:09.682Z,21.99
2022-10-01T18:26:03.298Z,21.91
2022-10-01T18:31:11.728Z,22.03
2022-10-01T18:36:18.705Z,21.91
2022-10-01T18:41:24.908Z,21.96
2022-10-01T18:46:19.669Z,22.03
2022-10-01T18:51:52.951Z,22.01
2022-10-01T18:57:05.615Z,22.03
2022-10-01T19:02:23.321Z,22.08
2022-10-01T19:07:38.590Z,22.07
2022-10-01T19:12:57.668Z,22.07
2022-10-01T19:18:10.164Z,22.10
2022-10-01T19:23:27.033Z,21.99
2022-10-01T19:28:29.027Z,21.96
2022-10-01T19:33:24.377Z,22.04
2022-10-01T19:38:26.438Z,22.08
2022-10-01T19:43:39.801Z,22.01
2022-10-01T19:48:55.289Z,21.97
2022-10-01T19:53:56.823Z,21.92
2022-10-01T19:58:50.360Z,21.89
2022-10-01T20:03:52.992Z,21.98
2022-10-01T20:08:56.628Z,21.90
2022-10-01T20:13:52.760Z,21.93
2022-10-01T20:19:11.676Z,21.89
2022-10-01T20:24:23.320Z,21.85
2022-10-01T20:29:39.820Z,21.83
2022-10-01T20:34:41.127Z,21.81
2022-10-01T20:39:54.323Z,21.70
2022-10-01T20:44:48.229Z,21.78
2022-10-01T20:49:47.455Z,21.78
2022-10-01T20:54:48.308Z,21.77
2022-10-01T21:00:01.587Z,21.76
2022-10-01T21:05:02.980Z,21.77
2022-10-01T21:10:00.451Z,21.74
2022-10-01T21:14:56.895Z,21.79
2022-10-01T21:19:50.422Z,21.68
2022-10-01T21:25:08.289Z,21.81
2022-10-01T21:30:24.266Z,21.79
2022-10-01T21:35:23.937Z,21.78
2022-10-01T21:40:28.377Z,21.79
2022-10-01T21:45:55.607Z,21.78
2022-10-01T21:50:54.230Z,21.79
2022-10-01T21:56:13.112Z,21.76
2022-10-01T22:01:28.059Z,21.78
2022-10-01T22:06:46.110Z,21.77
2022-10-01T22:11:46.684Z,21.64
2022-10-01T22:16:52.867Z,21.74
2022-10-01T22:21:54.148Z,21.71
2022-10-01T22:26:55.204Z,21.69
2022-10-01T22:31:52.471Z,21.65
2022-10-01T22:36:51.891Z,21.70
2022-10-01T22:41:53.884Z,21.66
2022-10-01T22:47:41.047Z,21.68
2022-10-01T22:52:53.479Z,21.52
2022-10-01T22:58:37.773Z,21.62
2022-10-01T23:03:49.114Z,21.48
2022-10-01T23:08:54.642Z,21.60
2022-10-01T23:13:53.853Z,21.48
2022-10-01T23:19:28.631Z,21.61
2022-10-01T23:24:43.202Z,21.59
2022-10-01T23:30:06.118Z,21.55
2022-10-01T23:35:08.962Z,21.54
2022-10-01T23:40:08.661Z,21.53
2022-10-01T23:45:36.484Z,21.45
2022-10-01T23:50:41.697Z,21.52
2022-10-01T23:56:18.942Z,21.42
